Bosques, Argentina
Current Conditions -  °F | °C
As of 6:00 PM on Thursday 18 Dec 2014 (Local Time) from SAEZ Reporting Station
Clear Clear  
Wind Chill: 32°   Ceiling: Unl
Heat Index: 32°   Visibility: 6mi
Dew Point: 13°   Wind: 8mph
Humidity: 31%   Direction: 300°WNW
Pressure: 29.74"   Gusts: NA
Location:  34.82°S, 58.23°W
Report Text: SAEZ 182100Z 30007KT 270V350 CAVOK 32/13 Q1007
Loading
Personal Weather Stations






























Interactive Weather Map New forecast layout! Learn more

10-Day Weather Forecast

Advertisements
Track Severe Weather on mobile